createdAt,value
2018-11-14T00:00:26.251Z,5.53
2018-11-14T00:02:55.045Z,5.07
2018-11-14T00:05:23.973Z,5.10
2018-11-14T00:07:53.327Z,5.13
2018-11-14T00:10:22.267Z,5.43
2018-11-14T00:12:50.925Z,4.93
2018-11-14T00:15:21.178Z,5.33
2018-11-14T00:17:50.572Z,5.03
2018-11-14T00:20:19.506Z,5.17
2018-11-14T00:22:49.213Z,4.47
2018-11-14T00:25:18.545Z,5.10
2018-11-14T00:27:47.210Z,4.30
2018-11-14T00:30:25.010Z,4.47
2018-11-14T00:32:53.712Z,4.60
2018-11-14T00:35:22.918Z,4.20
2018-11-14T00:37:51.979Z,3.80
2018-11-14T00:40:21.184Z,3.97
2018-11-14T00:42:50.160Z,4.13
2018-11-14T00:45:20.152Z,4.37
2018-11-14T00:47:49.478Z,4.43
2018-11-14T00:50:19.020Z,4.67
2018-11-14T00:52:48.048Z,4.70
2018-11-14T00:55:18.033Z,4.47
2018-11-14T00:57:48.067Z,4.60
2018-11-14T01:00:18.968Z,4.67
2018-11-14T01:02:47.962Z,4.43
2018-11-14T01:05:17.615Z,4.10
2018-11-14T01:07:46.868Z,3.90
2018-11-14T01:10:16.839Z,4.50
2018-11-14T01:12:46.058Z,3.93
2018-11-14T01:15:16.459Z,3.93
2018-11-14T01:17:45.136Z,3.93
2018-11-14T01:20:19.541Z,3.90
2018-11-14T01:22:48.586Z,3.80
2018-11-14T01:25:17.835Z,3.77
2018-11-14T01:27:46.973Z,3.60
2018-11-14T01:30:25.163Z,4.00
2018-11-14T01:32:54.669Z,4.00
2018-11-14T01:35:23.417Z,3.77
2018-11-14T01:37:52.358Z,3.33
2018-11-14T01:40:24.033Z,3.63
2018-11-14T01:42:54.096Z,3.53
2018-11-14T01:45:23.113Z,3.50
2018-11-14T01:47:52.257Z,2.97
2018-11-14T01:50:21.066Z,3.10
2018-11-14T01:52:49.772Z,3.23
2018-11-14T01:55:19.949Z,3.63
2018-11-14T01:57:48.619Z,3.43
2018-11-14T02:00:20.794Z,3.40
2018-11-14T02:02:49.565Z,3.13
2018-11-14T02:05:18.435Z,3.30
2018-11-14T02:07:47.284Z,3.17
2018-11-14T02:10:20.041Z,3.40
2018-11-14T02:12:49.092Z,3.13
2018-11-14T02:15:19.429Z,3.10
2018-11-14T02:17:48.123Z,3.27
2018-11-14T02:20:16.923Z,3.40
2018-11-14T02:22:45.941Z,3.50
2018-11-14T02:25:17.741Z,3.03
2018-11-14T02:27:46.547Z,2.77
2018-11-14T02:30:17.762Z,2.73
2018-11-14T02:32:46.397Z,2.90
2018-11-14T02:35:15.151Z,2.83
2018-11-14T02:37:44.710Z,2.73
2018-11-14T02:40:15.300Z,3.00
2018-11-14T02:42:44.027Z,3.03
2018-11-14T02:45:13.122Z,3.63
2018-11-14T02:47:41.868Z,3.20
2018-11-14T02:50:13.315Z,3.10
2018-11-14T02:52:41.998Z,3.87
2018-11-14T02:55:13.320Z,3.00
2018-11-14T02:57:42.742Z,3.20
2018-11-14T03:00:14.994Z,3.30
2018-11-14T03:02:44.102Z,2.90
2018-11-14T03:05:13.041Z,2.70
2018-11-14T03:07:41.694Z,2.93
2018-11-14T03:10:12.400Z,3.40
2018-11-14T03:12:42.182Z,3.20
2018-11-14T03:15:13.392Z,3.13
2018-11-14T03:17:42.161Z,2.50
2018-11-14T03:20:13.548Z,2.37
2018-11-14T03:22:42.331Z,2.23
2018-11-14T03:25:12.821Z,2.63
2018-11-14T03:27:41.503Z,2.40
2018-11-14T03:30:12.931Z,2.93
2018-11-14T03:32:42.503Z,2.73
2018-11-14T03:35:11.988Z,2.63
2018-11-14T03:37:41.278Z,2.73
2018-11-14T03:40:12.837Z,2.60
2018-11-14T03:42:42.035Z,2.50
2018-11-14T03:45:12.136Z,2.17
2018-11-14T03:47:41.323Z,2.03
2018-11-14T03:50:10.724Z,2.10
2018-11-14T03:52:39.966Z,2.10
2018-11-14T03:55:08.833Z,2.07
2018-11-14T03:57:37.524Z,2.03
2018-11-14T04:00:09.476Z,2.03
2018-11-14T04:02:38.152Z,1.93
2018-11-14T04:05:07.271Z,1.90
2018-11-14T04:07:36.217Z,2.33
2018-11-14T04:10:06.126Z,2.20
2018-11-14T04:12:34.838Z,1.73
2018-11-14T04:15:03.705Z,1.70
2018-11-14T04:17:32.391Z,2.00
2018-11-14T04:20:01.512Z,1.83
2018-11-14T04:22:30.667Z,2.00
2018-11-14T04:24:59.342Z,1.67
2018-11-14T04:27:27.948Z,1.87
2018-11-14T04:29:57.583Z,1.97
2018-11-14T04:32:27.115Z,1.90
2018-11-14T04:34:56.083Z,2.00
2018-11-14T04:37:25.038Z,1.90
2018-11-14T04:39:53.731Z,1.80
2018-11-14T04:42:23.587Z,3.63
2018-11-14T04:44:52.772Z,5.10
2018-11-14T04:47:21.642Z,7.13
2018-11-14T04:49:50.596Z,8.27
2018-11-14T04:52:19.297Z,7.60
2018-11-14T04:54:48.009Z,5.63
2018-11-14T04:57:16.679Z,3.83
2018-11-14T04:59:45.585Z,4.80
2018-11-14T05:02:14.235Z,4.20
2018-11-14T05:04:42.982Z,2.20
2018-11-14T05:07:11.628Z,2.10
2018-11-14T05:09:40.702Z,3.17
2018-11-14T05:12:09.683Z,5.80
2018-11-14T05:14:38.327Z,4.83
2018-11-14T05:17:07.080Z,5.83
2018-11-14T05:19:35.953Z,5.90
2018-11-14T05:22:05.455Z,6.60
2018-11-14T05:24:34.107Z,5.00
2018-11-14T05:27:03.087Z,3.93
2018-11-14T05:29:31.873Z,3.70
2018-11-14T05:32:00.617Z,3.43
2018-11-14T05:34:29.493Z,2.90
2018-11-14T05:36:58.460Z,2.80
2018-11-14T05:39:27.235Z,2.90
2018-11-14T05:41:56.005Z,2.93
2018-11-14T05:44:25.345Z,3.23
2018-11-14T05:46:53.977Z,2.70
2018-11-14T05:49:22.712Z,2.57
2018-11-14T05:51:51.375Z,2.73
2018-11-14T05:54:20.035Z,2.40
2018-11-14T05:56:48.867Z,2.93
2018-11-14T05:59:17.489Z,2.50
2018-11-14T06:01:46.149Z,3.40
2018-11-14T06:04:15.024Z,3.13
2018-11-14T06:06:43.995Z,2.60
2018-11-14T06:09:14.082Z,2.27
2018-11-14T06:11:42.917Z,2.40
2018-11-14T06:14:11.641Z,2.50
2018-11-14T06:16:40.509Z,4.47
2018-11-14T06:19:10.131Z,4.27
2018-11-14T06:21:41.380Z,3.97
2018-11-14T06:24:13.028Z,3.13
2018-11-14T06:26:43.816Z,3.17
2018-11-14T06:29:12.553Z,3.07
2018-11-14T06:31:41.421Z,3.23
2018-11-14T06:34:10.106Z,3.40
2018-11-14T06:36:38.811Z,3.20
2018-11-14T06:39:10.769Z,2.90
2018-11-14T06:41:40.348Z,2.70
2018-11-14T06:44:09.508Z,2.60
2018-11-14T06:46:38.370Z,2.57
2018-11-14T06:49:07.147Z,2.43
2018-11-14T06:51:36.151Z,2.90
2018-11-14T06:54:05.156Z,3.20
2018-11-14T06:56:34.308Z,4.67
2018-11-14T06:59:03.104Z,4.50
2018-11-14T07:01:31.877Z,5.63
2018-11-14T07:04:00.719Z,5.43
2018-11-14T07:06:29.863Z,5.17
2018-11-14T07:08:58.651Z,5.97
2018-11-14T07:11:29.506Z,4.40
2018-11-14T07:13:58.187Z,4.87
2018-11-14T07:16:26.893Z,4.90
2018-11-14T07:18:55.757Z,4.00
2018-11-14T07:21:24.549Z,4.47
2018-11-14T07:23:53.262Z,4.60
2018-11-14T07:26:22.195Z,4.17
2018-11-14T07:28:51.345Z,3.57
2018-11-14T07:31:20.071Z,4.00
2018-11-14T07:33:51.203Z,3.60
2018-11-14T07:36:20.687Z,3.57
2018-11-14T07:38:50.310Z,4.17
2018-11-14T07:41:22.092Z,3.50
2018-11-14T07:43:51.146Z,3.87
2018-11-14T07:46:21.801Z,4.57
2018-11-14T07:48:51.329Z,3.67
2018-11-14T07:51:20.398Z,4.33
2018-11-14T07:53:49.563Z,4.27
2018-11-14T07:56:19.063Z,4.90
2018-11-14T07:58:47.909Z,6.50
2018-11-14T08:01:17.239Z,10.33
2018-11-14T08:03:46.429Z,6.80
2018-11-14T08:06:15.283Z,7.63
2018-11-14T08:08:45.069Z,7.50
2018-11-14T08:11:14.021Z,7.33
2018-11-14T08:13:44.620Z,7.27
2018-11-14T08:16:13.510Z,6.40
2018-11-14T08:18:42.514Z,6.70
2018-11-14T08:21:11.576Z,5.50
2018-11-14T08:23:40.238Z,5.50
2018-11-14T08:26:08.935Z,6.23
2018-11-14T08:28:37.742Z,5.50
2018-11-14T08:31:06.703Z,5.73
2018-11-14T08:33:36.231Z,6.57
2018-11-14T08:36:09.408Z,6.73
2018-11-14T08:38:38.737Z,7.00
2018-11-14T08:41:07.575Z,7.60
2018-11-14T08:43:36.491Z,7.20
2018-11-14T08:48:58.457Z,5.73
2018-11-14T08:51:27.060Z,5.50
2018-11-14T08:53:55.739Z,5.60
2018-11-14T08:56:24.360Z,5.43
2018-11-14T08:58:53.162Z,5.20
2018-11-14T09:01:21.847Z,5.17
2018-11-14T09:03:50.553Z,5.43
2018-11-14T09:06:19.287Z,4.90
2018-11-14T09:08:47.950Z,5.43
2018-11-14T09:11:17.049Z,4.90
2018-11-14T09:13:45.743Z,4.97
2018-11-14T09:16:14.850Z,4.13
2018-11-14T09:18:43.702Z,4.27
2018-11-14T09:21:12.308Z,4.20
2018-11-14T09:23:40.995Z,3.70
2018-11-14T09:26:09.889Z,5.00
2018-11-14T09:28:39.185Z,5.20
2018-11-14T09:31:08.011Z,5.67
2018-11-14T09:33:36.830Z,5.23
2018-11-14T09:36:05.777Z,5.93
2018-11-14T09:38:34.419Z,6.03
2018-11-14T09:41:03.365Z,5.23
2018-11-14T09:43:31.976Z,4.77
2018-11-14T09:46:02.077Z,4.73
2018-11-14T09:48:33.097Z,4.53
2018-11-14T09:51:02.663Z,4.50
2018-11-14T09:53:35.109Z,3.77
2018-11-14T09:56:03.813Z,4.13
2018-11-14T09:58:32.434Z,4.03
2018-11-14T10:01:01.097Z,3.83
2018-11-14T10:03:30.417Z,3.10
2018-11-14T10:05:59.067Z,3.50
2018-11-14T10:08:27.919Z,3.00
2018-11-14T10:10:56.657Z,3.23
2018-11-14T10:13:25.307Z,2.97
2018-11-14T10:15:54.313Z,2.93
2018-11-14T10:18:23.152Z,2.67
2018-11-14T10:20:51.868Z,2.37
2018-11-14T10:23:20.663Z,2.33
2018-11-14T10:25:51.100Z,1.60
2018-11-14T10:28:19.827Z,1.40
2018-11-14T10:30:48.590Z,1.40
2018-11-14T10:33:17.287Z,1.30
2018-11-14T10:35:45.949Z,1.30
2018-11-14T10:38:14.732Z,1.00
2018-11-14T10:40:43.712Z,1.00
2018-11-14T10:43:12.573Z,0.90
2018-11-14T10:45:41.256Z,0.80
2018-11-14T10:48:09.873Z,0.90
2018-11-14T10:50:38.869Z,0.90
2018-11-14T10:53:07.554Z,0.90
2018-11-14T10:55:36.654Z,0.70
2018-11-14T10:58:05.614Z,0.70
2018-11-14T11:00:39.577Z,0.70
2018-11-14T11:05:18.917Z,0.90
2018-11-14T11:07:53.080Z,0.83
2018-11-14T11:10:27.026Z,0.80
2018-11-14T11:15:07.420Z,0.87
2018-11-14T11:17:41.595Z,1.10
2018-11-14T11:20:10.283Z,0.80
2018-11-14T11:22:39.338Z,0.90
2018-11-14T11:25:08.066Z,1.00
2018-11-14T11:27:37.570Z,1.50
2018-11-14T11:30:08.454Z,0.93
2018-11-14T11:32:37.337Z,1.00
2018-11-14T11:35:06.817Z,0.90
2018-11-14T11:37:35.708Z,1.17
2018-11-14T11:40:05.306Z,1.00
2018-11-14T11:42:34.891Z,1.20
2018-11-14T11:45:04.482Z,1.07
2018-11-14T11:47:33.570Z,1.00
2018-11-14T11:50:02.844Z,0.83
2018-11-14T11:52:31.545Z,1.03
2018-11-14T11:55:00.310Z,0.83
2018-11-14T11:57:29.992Z,1.10
2018-11-14T11:59:58.637Z,0.90
2018-11-14T12:02:27.373Z,0.90
2018-11-14T12:04:56.449Z,0.90
2018-11-14T12:07:25.138Z,1.40
2018-11-14T12:09:53.799Z,1.00
2018-11-14T12:12:22.479Z,1.17
2018-11-14T12:14:51.693Z,1.10
2018-11-14T12:17:20.422Z,1.00
2018-11-14T12:19:49.148Z,0.93
2018-11-14T12:22:19.357Z,1.10
2018-11-14T12:24:48.044Z,0.90
2018-11-14T12:27:17.214Z,1.10
2018-11-14T12:29:45.935Z,1.13
2018-11-14T12:32:15.875Z,1.00
2018-11-14T12:34:44.678Z,0.80
2018-11-14T12:37:13.415Z,0.80
2018-11-14T12:39:42.273Z,1.20
2018-11-14T12:42:11.012Z,1.00
2018-11-14T12:44:40.949Z,0.97
2018-11-14T12:47:10.331Z,0.93
2018-11-14T12:49:40.280Z,1.00
2018-11-14T12:52:10.345Z,1.10
2018-11-14T12:54:55.620Z,1.07
2018-11-14T12:57:24.454Z,1.00
2018-11-14T12:59:53.364Z,0.90
2018-11-14T13:02:22.052Z,1.10
2018-11-14T13:04:51.006Z,0.53
2018-11-14T13:07:19.772Z,1.00
2018-11-14T13:09:48.596Z,0.93
2018-11-14T13:12:17.339Z,1.00
2018-11-14T13:14:46.018Z,1.33
2018-11-14T13:17:15.527Z,1.47
2018-11-14T13:19:44.351Z,1.03
2018-11-14T13:22:13.389Z,1.00
2018-11-14T13:24:43.011Z,0.93
2018-11-14T13:27:11.660Z,1.10
2018-11-14T13:29:40.658Z,0.70
2018-11-14T13:32:09.656Z,0.67
2018-11-14T13:34:38.363Z,0.70
2018-11-14T13:37:06.995Z,1.00
2018-11-14T13:39:37.907Z,0.90
2018-11-14T13:42:06.820Z,0.90
2018-11-14T13:44:35.468Z,1.33
2018-11-14T13:47:04.789Z,2.87
2018-11-14T13:49:33.938Z,4.10
2018-11-14T13:52:03.047Z,3.57
2018-11-14T13:54:31.702Z,3.47
2018-11-14T13:57:00.429Z,4.20
2018-11-14T13:59:29.443Z,4.23
2018-11-14T14:01:58.137Z,4.60
2018-11-14T14:04:26.927Z,3.90
2018-11-14T14:06:56.376Z,3.90
2018-11-14T14:09:26.266Z,4.20
2018-11-14T14:11:54.921Z,4.00
2018-11-14T14:14:23.918Z,4.03
2018-11-14T14:16:52.915Z,4.53
2018-11-14T14:19:21.794Z,4.23
2018-11-14T14:21:50.769Z,4.17
2018-11-14T14:24:19.527Z,4.13
2018-11-14T14:26:48.202Z,4.10
2018-11-14T14:29:16.817Z,4.60
2018-11-14T14:31:45.503Z,4.27
2018-11-14T14:34:14.169Z,4.80
2018-11-14T14:36:42.860Z,4.50
2018-11-14T14:39:12.680Z,4.10
2018-11-14T14:41:41.804Z,4.60
2018-11-14T14:44:10.710Z,5.40
2018-11-14T14:46:39.627Z,5.13
2018-11-14T14:49:08.761Z,4.50
2018-11-14T14:51:38.067Z,5.33
2018-11-14T14:54:06.789Z,5.40
2018-11-14T14:56:35.737Z,5.33
2018-11-14T14:59:04.425Z,5.40
2018-11-14T15:01:33.358Z,5.33
2018-11-14T15:04:02.229Z,5.60
2018-11-14T15:06:31.048Z,6.13
2018-11-14T15:08:59.822Z,6.20
2018-11-14T15:11:28.703Z,6.00
2018-11-14T15:13:57.321Z,6.27
2018-11-14T15:16:28.463Z,6.43
2018-11-14T15:18:57.165Z,6.70
2018-11-14T15:21:26.450Z,6.50
2018-11-14T15:23:55.336Z,7.50
2018-11-14T15:26:23.964Z,8.27
2018-11-14T15:28:52.780Z,7.57
2018-11-14T15:31:21.676Z,6.60
2018-11-14T15:33:50.756Z,6.33
2018-11-14T15:36:19.995Z,6.80
2018-11-14T15:38:49.382Z,7.57
2018-11-14T15:41:26.844Z,7.10
2018-11-14T15:43:55.536Z,7.20
2018-11-14T15:46:24.414Z,9.03
2018-11-14T15:48:53.287Z,8.30
2018-11-14T15:51:21.996Z,10.97
2018-11-14T15:53:51.496Z,10.53
2018-11-14T15:56:20.801Z,18.47
2018-11-14T15:58:49.683Z,16.13
2018-11-14T16:01:18.390Z,8.80
2018-11-14T16:03:47.310Z,10.63
2018-11-14T16:06:17.705Z,13.13
2018-11-14T16:08:46.327Z,9.97
2018-11-14T16:11:14.971Z,9.67
2018-11-14T16:13:49.720Z,9.27
2018-11-14T16:16:18.412Z,9.20
2018-11-14T16:18:47.866Z,10.10
2018-11-14T16:21:16.619Z,12.73
2018-11-14T16:23:45.457Z,13.20
2018-11-14T16:26:15.503Z,13.97
2018-11-14T16:28:44.378Z,14.40
2018-11-14T16:31:13.013Z,15.53
2018-11-14T16:33:41.768Z,13.07
2018-11-14T16:36:11.056Z,12.40
2018-11-14T16:38:40.752Z,11.27
2018-11-14T16:41:09.745Z,11.33
2018-11-14T16:43:38.432Z,10.40
2018-11-14T16:46:07.662Z,11.97
2018-11-14T16:48:37.638Z,11.37
2018-11-14T16:51:06.432Z,12.40
2018-11-14T16:53:35.588Z,12.77
2018-11-14T16:56:04.638Z,11.17
2018-11-14T16:58:33.547Z,14.20
2018-11-14T17:01:02.215Z,13.77
2018-11-14T17:03:30.909Z,12.70
2018-11-14T17:05:59.548Z,12.20
2018-11-14T17:08:29.045Z,12.70
2018-11-14T17:10:58.231Z,16.00
2018-11-14T17:13:27.354Z,15.03
2018-11-14T17:15:55.999Z,13.70
2018-11-14T17:18:24.987Z,13.13
2018-11-14T17:20:54.055Z,16.03
2018-11-14T17:23:28.799Z,13.80
2018-11-14T17:25:57.659Z,13.23
2018-11-14T17:28:26.351Z,12.80
2018-11-14T17:30:55.008Z,12.20
2018-11-14T17:33:35.350Z,13.07
2018-11-14T17:36:04.120Z,13.00
2018-11-14T17:38:32.791Z,13.30
2018-11-14T17:41:01.994Z,14.27
2018-11-14T17:43:30.748Z,12.63
2018-11-14T17:45:59.501Z,12.00
2018-11-14T17:48:28.475Z,11.83
2018-11-14T17:50:58.116Z,12.20
2018-11-14T17:53:27.016Z,10.87
2018-11-14T17:55:55.662Z,11.93
2018-11-14T17:58:24.335Z,13.07
2018-11-14T18:00:53.190Z,12.20
2018-11-14T18:03:22.684Z,12.40
2018-11-14T18:05:51.356Z,11.80
2018-11-14T18:08:20.058Z,11.63
2018-11-14T18:10:48.681Z,12.40
2018-11-14T18:13:17.438Z,12.70
2018-11-14T18:15:46.040Z,12.63
2018-11-14T18:18:14.764Z,14.07
2018-11-14T18:20:43.417Z,12.00
2018-11-14T18:23:13.033Z,14.40
2018-11-14T18:25:41.694Z,12.70
2018-11-14T18:28:12.428Z,15.23
2018-11-14T18:30:41.114Z,14.80
2018-11-14T18:33:10.704Z,13.97
2018-11-14T18:35:39.902Z,15.53
2018-11-14T18:38:09.159Z,14.07
2018-11-14T18:40:38.115Z,13.50
2018-11-14T18:43:06.979Z,13.33
2018-11-14T18:45:36.608Z,18.23
2018-11-14T18:48:06.222Z,13.30
2018-11-14T18:50:36.524Z,13.43
2018-11-14T18:53:06.800Z,13.77
2018-11-14T18:55:36.200Z,12.57
2018-11-14T18:58:06.255Z,12.20
2018-11-14T19:00:35.831Z,14.07
2018-11-14T19:03:04.579Z,14.47
2018-11-14T19:05:33.517Z,13.30
2018-11-14T19:08:02.271Z,12.80
2018-11-14T19:10:32.335Z,12.67
2018-11-14T19:13:01.068Z,12.90
2018-11-14T19:15:31.299Z,12.73
2018-11-14T19:17:59.979Z,12.17
2018-11-14T19:20:29.996Z,10.83
2018-11-14T19:22:59.821Z,12.00
2018-11-14T19:25:30.064Z,13.60
2018-11-14T19:27:58.775Z,11.73
2018-11-14T19:30:28.966Z,11.90
2018-11-14T19:32:58.542Z,11.83
2018-11-14T19:35:29.061Z,10.83
2018-11-14T19:37:58.249Z,12.30
2018-11-14T19:40:30.264Z,11.40
2018-11-14T19:43:01.267Z,12.40
2018-11-14T19:45:31.712Z,11.70
2018-11-14T19:48:00.410Z,12.87
2018-11-14T19:50:29.301Z,12.13
2018-11-14T19:52:58.245Z,12.83
2018-11-14T19:55:28.127Z,12.13
2018-11-14T19:57:58.195Z,12.13
2018-11-14T20:00:29.341Z,12.13
2018-11-14T20:02:58.723Z,13.00
2018-11-14T20:05:27.627Z,11.47
2018-11-14T20:07:56.325Z,12.00
2018-11-14T20:10:27.609Z,12.10
2018-11-14T20:12:56.256Z,11.33
2018-11-14T20:15:27.415Z,12.07
2018-11-14T20:17:56.207Z,11.07
2018-11-14T20:20:27.366Z,11.20
2018-11-14T20:22:56.027Z,10.70
2018-11-14T20:25:24.803Z,10.20
2018-11-14T20:27:54.095Z,9.33
2018-11-14T20:30:28.568Z,11.13
2018-11-14T20:32:58.603Z,10.23
2018-11-14T20:35:28.128Z,10.27
2018-11-14T20:37:57.175Z,11.00
2018-11-14T20:40:26.360Z,10.53
2018-11-14T20:42:55.879Z,11.97
2018-11-14T20:45:27.705Z,12.10
2018-11-14T20:47:56.551Z,11.10
2018-11-14T20:50:26.102Z,10.20
2018-11-14T20:52:57.798Z,10.60
2018-11-14T20:55:26.835Z,10.97
2018-11-14T20:57:55.667Z,11.43
2018-11-14T21:00:25.873Z,12.10
2018-11-14T21:02:55.072Z,11.73
2018-11-14T21:05:24.546Z,11.87
2018-11-14T21:07:54.218Z,13.07
2018-11-14T21:10:24.547Z,15.67
2018-11-14T21:12:55.480Z,13.80
2018-11-14T21:15:26.813Z,11.50
2018-11-14T21:17:56.516Z,11.37
2018-11-14T21:20:25.162Z,11.40
2018-11-14T21:22:56.508Z,11.10
2018-11-14T21:25:26.208Z,10.83
2018-11-14T21:27:55.793Z,10.87
2018-11-14T21:30:26.014Z,10.67
2018-11-14T21:32:55.153Z,10.53
2018-11-14T21:35:28.479Z,9.80
2018-11-14T21:37:58.562Z,9.93
2018-11-14T21:40:28.239Z,9.40
2018-11-14T21:42:57.676Z,9.60
2018-11-14T21:45:27.733Z,11.20
2018-11-14T21:48:01.756Z,11.27
2018-11-14T21:50:31.146Z,11.50
2018-11-14T21:53:00.013Z,12.43
2018-11-14T21:55:28.705Z,10.27
2018-11-14T21:57:57.497Z,8.97
2018-11-14T22:00:33.389Z,9.87
2018-11-14T22:03:02.879Z,9.13
2018-11-14T22:05:31.546Z,11.67
2018-11-14T22:08:00.220Z,12.43
2018-11-14T22:10:29.026Z,11.03
2018-11-14T22:12:57.678Z,10.20
2018-11-14T22:15:27.493Z,10.60
2018-11-14T22:17:56.215Z,9.27
2018-11-14T22:20:26.177Z,8.80
2018-11-14T22:22:56.296Z,8.97
2018-11-14T22:25:26.447Z,9.23
2018-11-14T22:27:55.355Z,9.30
2018-11-14T22:30:33.345Z,9.37
2018-11-14T22:33:02.043Z,8.87
2018-11-14T22:35:32.710Z,8.33
2018-11-14T22:38:01.392Z,8.87
2018-11-14T22:40:31.472Z,8.40
2018-11-14T22:43:00.253Z,8.07
2018-11-14T22:45:32.381Z,8.20
2018-11-14T22:48:01.272Z,7.83
2018-11-14T22:50:30.348Z,8.23
2018-11-14T22:52:59.123Z,7.30
2018-11-14T22:55:27.795Z,6.97
2018-11-14T22:57:56.770Z,7.77
2018-11-14T23:00:31.951Z,7.47
2018-11-14T23:03:01.908Z,7.97
2018-11-14T23:05:30.874Z,8.17
2018-11-14T23:08:00.347Z,7.20
2018-11-14T23:10:29.713Z,7.43
2018-11-14T23:12:58.650Z,7.70
2018-11-14T23:15:27.615Z,7.17
2018-11-14T23:17:56.865Z,6.57
2018-11-14T23:20:27.495Z,7.10
2018-11-14T23:22:56.695Z,6.17
2018-11-14T23:25:25.352Z,7.10
2018-11-14T23:27:55.807Z,7.20
2018-11-14T23:30:26.659Z,7.23
2018-11-14T23:32:56.757Z,6.63
2018-11-14T23:35:27.336Z,6.67
2018-11-14T23:37:58.226Z,6.53
2018-11-14T23:40:27.453Z,6.37
2018-11-14T23:42:56.940Z,6.53
2018-11-14T23:45:28.139Z,6.03
2018-11-14T23:47:57.943Z,6.60
2018-11-14T23:50:27.778Z,6.60
2018-11-14T23:52:57.354Z,7.60
2018-11-14T23:55:26.969Z,6.83
2018-11-14T23:57:56.513Z,6.10
